createdAt,value
2022-10-17T00:03:53.532Z,15.60
2022-10-17T00:08:57.066Z,15.70
2022-10-17T00:14:00.583Z,16.10
2022-10-17T00:19:07.818Z,14.88
2022-10-17T00:24:11.316Z,15.27
2022-10-17T00:29:14.772Z,15.32
2022-10-17T00:34:19.711Z,15.07
2022-10-17T00:39:23.162Z,14.93
2022-10-17T00:45:09.326Z,14.30
2022-10-17T00:50:15.418Z,14.73
2022-10-17T00:55:25.346Z,14.70
2022-10-17T01:00:28.956Z,13.73
2022-10-17T01:05:34.420Z,13.70
2022-10-17T01:10:53.800Z,12.63
2022-10-17T01:16:09.978Z,12.27
2022-10-17T01:21:38.958Z,13.02
2022-10-17T01:27:06.201Z,12.85
2022-10-17T01:32:17.394Z,11.82
2022-10-17T01:37:29.751Z,11.57
2022-10-17T01:42:41.371Z,11.88
2022-10-17T01:47:49.355Z,11.82
2022-10-17T01:53:00.167Z,11.23
2022-10-17T01:58:10.691Z,11.35
2022-10-17T02:03:21.167Z,10.13
2022-10-17T02:08:29.055Z,10.93
2022-10-17T02:13:51.410Z,10.05
2022-10-17T02:19:34.326Z,9.93
2022-10-17T02:24:49.675Z,10.18
2022-10-17T02:30:02.377Z,10.25
2022-10-17T02:35:11.367Z,9.85
2022-10-17T02:40:17.584Z,9.50
2022-10-17T02:45:21.925Z,9.65
2022-10-17T02:50:38.947Z,9.18
2022-10-17T02:55:51.804Z,8.70
2022-10-17T03:00:55.685Z,8.73
2022-10-17T03:06:00.649Z,8.35
2022-10-17T03:11:04.127Z,8.73
2022-10-17T03:16:08.202Z,8.25
2022-10-17T03:21:14.099Z,7.68
2022-10-17T03:26:17.966Z,8.07
2022-10-17T03:31:21.673Z,8.10
2022-10-17T03:36:27.336Z,7.57
2022-10-17T03:41:31.341Z,7.53
2022-10-17T03:46:35.396Z,7.55
2022-10-17T03:51:40.431Z,7.35
2022-10-17T03:56:48.650Z,7.57
2022-10-17T04:01:55.386Z,7.15
2022-10-17T04:07:00.824Z,7.10
2022-10-17T04:12:05.530Z,7.10
2022-10-17T04:17:10.462Z,7.20
2022-10-17T04:22:16.922Z,6.93
2022-10-17T04:27:20.638Z,6.78
2022-10-17T04:32:25.871Z,6.28
2022-10-17T04:37:44.997Z,6.82
2022-10-17T04:42:54.475Z,6.68
2022-10-17T04:48:03.452Z,6.07
2022-10-17T04:53:08.298Z,6.30
2022-10-17T04:58:11.937Z,6.43
2022-10-17T05:03:16.960Z,5.68
2022-10-17T05:08:21.765Z,6.13
2022-10-17T05:13:27.774Z,6.10
2022-10-17T05:18:31.497Z,6.10
2022-10-17T05:23:36.550Z,5.28
2022-10-17T05:28:40.455Z,5.70
2022-10-17T05:33:45.141Z,5.00
2022-10-17T05:38:53.217Z,4.38
2022-10-17T05:43:57.806Z,3.97
2022-10-17T05:49:31.863Z,3.85
2022-10-17T05:54:39.846Z,3.55
2022-10-17T05:59:43.574Z,3.30
2022-10-17T06:04:54.870Z,3.25
2022-10-17T06:10:01.979Z,3.13
2022-10-17T06:15:07.702Z,3.20
2022-10-17T06:20:12.369Z,3.30
2022-10-17T06:25:17.472Z,3.15
2022-10-17T06:30:21.366Z,3.10
2022-10-17T06:35:26.816Z,2.83
2022-10-17T06:40:31.740Z,2.90
2022-10-17T06:45:36.812Z,3.10
2022-10-17T06:50:50.662Z,2.97
2022-10-17T06:56:03.066Z,3.25
2022-10-17T07:01:36.020Z,3.45
2022-10-17T07:06:41.406Z,4.18
2022-10-17T07:11:53.445Z,4.40
2022-10-17T07:16:57.347Z,4.50
2022-10-17T07:22:02.701Z,3.88
2022-10-17T07:27:09.275Z,4.20
2022-10-17T07:32:13.019Z,4.70
2022-10-17T07:37:17.372Z,5.40
2022-10-17T07:42:29.127Z,5.25
2022-10-17T07:47:35.729Z,5.90
2022-10-17T07:52:43.216Z,5.38
2022-10-17T07:57:48.190Z,5.57
2022-10-17T08:02:51.887Z,5.95
2022-10-17T08:07:58.613Z,7.30
2022-10-17T08:13:03.797Z,8.03
2022-10-17T08:18:07.461Z,7.65
2022-10-17T08:23:11.031Z,7.65
2022-10-17T08:28:16.048Z,7.15
2022-10-17T08:33:19.612Z,7.38
2022-10-17T08:38:26.178Z,7.70
2022-10-17T08:43:54.490Z,8.90
2022-10-17T08:49:03.317Z,8.43
2022-10-17T08:54:16.528Z,8.27
2022-10-17T08:59:29.103Z,8.05
2022-10-17T09:05:04.636Z,7.45
2022-10-17T09:10:17.447Z,7.57
2022-10-17T09:15:45.199Z,6.93
2022-10-17T09:20:54.842Z,6.75
2022-10-17T09:26:01.663Z,6.88
2022-10-17T09:31:13.606Z,6.50
2022-10-17T09:36:22.778Z,6.32
2022-10-17T09:41:47.450Z,6.22
2022-10-17T09:47:26.096Z,5.88
2022-10-17T09:52:35.581Z,6.45
2022-10-17T09:57:56.769Z,5.35
2022-10-17T10:03:20.006Z,6.28
2022-10-17T10:08:29.950Z,5.78
2022-10-17T10:13:35.862Z,5.65
2022-10-17T10:18:40.909Z,5.32
2022-10-17T10:23:46.803Z,4.90
2022-10-17T10:28:58.594Z,4.93
2022-10-17T10:34:21.071Z,5.40
2022-10-17T10:39:50.938Z,5.32
2022-10-17T10:45:03.456Z,5.03
2022-10-17T10:50:35.760Z,4.68
2022-10-17T10:55:48.145Z,4.53
2022-10-17T11:00:52.408Z,4.70
2022-10-17T11:06:05.644Z,4.63
2022-10-17T11:11:19.836Z,4.55
2022-10-17T11:20:23.477Z,4.43
2022-10-17T11:25:38.168Z,4.25
2022-10-17T11:30:50.300Z,4.22
2022-10-17T11:36:04.666Z,4.00
2022-10-17T11:41:13.747Z,4.20
2022-10-17T11:46:23.794Z,4.03
2022-10-17T11:57:20.825Z,3.88
2022-10-17T12:02:38.051Z,3.80
2022-10-17T12:07:50.388Z,4.07
2022-10-17T12:12:54.053Z,3.80
2022-10-17T12:18:02.533Z,3.72
2022-10-17T12:23:29.630Z,3.80
2022-10-17T12:28:35.006Z,3.55
2022-10-17T12:33:51.926Z,3.25
2022-10-17T12:39:50.931Z,3.17
2022-10-17T12:44:54.608Z,3.40
2022-10-17T12:49:58.362Z,3.15
2022-10-17T12:55:14.360Z,2.97
2022-10-17T13:00:25.363Z,3.20
2022-10-17T13:05:33.932Z,2.80
2022-10-17T13:10:43.210Z,2.92
2022-10-17T13:15:49.942Z,3.05
2022-10-17T13:21:00.182Z,2.92
2022-10-17T13:26:20.090Z,2.60
2022-10-17T13:31:32.915Z,2.78
2022-10-17T13:36:37.262Z,2.95
2022-10-17T13:41:43.088Z,2.80
2022-10-17T13:46:47.017Z,2.95
2022-10-17T13:51:53.125Z,2.50
2022-10-17T13:56:59.487Z,2.40
2022-10-17T14:02:03.645Z,2.60
2022-10-17T14:07:08.274Z,2.65
2022-10-17T14:12:16.717Z,2.58
2022-10-17T14:17:27.654Z,2.50
2022-10-17T14:22:36.902Z,2.42
2022-10-17T14:28:02.539Z,2.10
2022-10-17T14:33:15.448Z,2.40
2022-10-17T14:38:20.104Z,2.45
2022-10-17T14:43:30.671Z,2.58
2022-10-17T14:48:36.008Z,2.40
2022-10-17T14:53:40.800Z,2.17
2022-10-17T14:58:45.735Z,2.33
2022-10-17T15:03:49.374Z,2.53
2022-10-17T15:08:53.138Z,2.30
2022-10-17T15:13:58.466Z,2.60
2022-10-17T15:19:02.495Z,2.17
2022-10-17T15:24:06.660Z,2.28
2022-10-17T15:29:16.703Z,2.20
2022-10-17T15:34:20.380Z,2.28
2022-10-17T15:39:23.932Z,2.30
2022-10-17T15:44:29.726Z,2.20
2022-10-17T15:49:34.665Z,2.10
2022-10-17T15:54:38.341Z,2.10
2022-10-17T15:59:43.754Z,2.15
2022-10-17T16:04:49.673Z,2.20
2022-10-17T16:09:53.317Z,2.28
2022-10-17T16:14:58.508Z,1.95
2022-10-17T16:20:02.101Z,2.00
2022-10-17T16:25:10.063Z,1.98
2022-10-17T16:30:16.094Z,2.10
2022-10-17T16:35:25.205Z,2.08
2022-10-17T16:40:28.911Z,2.00
2022-10-17T16:45:34.392Z,1.90
2022-10-17T16:50:41.576Z,2.10
2022-10-17T16:55:45.293Z,2.03
2022-10-17T17:00:50.220Z,1.80
2022-10-17T17:05:54.585Z,1.90
2022-10-17T17:10:58.864Z,2.03
2022-10-17T17:16:10.455Z,1.77
2022-10-17T17:21:14.643Z,2.17
2022-10-17T17:26:21.783Z,1.85
2022-10-17T17:31:30.034Z,1.75
2022-10-17T17:36:37.268Z,2.08
2022-10-17T17:41:43.406Z,1.70
2022-10-17T17:46:49.579Z,1.90
2022-10-17T17:51:53.776Z,1.73
2022-10-17T17:56:57.578Z,1.80
2022-10-17T18:02:03.066Z,1.73
2022-10-17T18:07:06.695Z,1.80
2022-10-17T18:12:10.496Z,1.70
2022-10-17T18:17:15.546Z,1.60
2022-10-17T18:22:19.088Z,1.75
2022-10-17T18:27:22.674Z,1.50
2022-10-17T18:32:28.022Z,1.67
2022-10-17T18:37:32.132Z,1.60
2022-10-17T18:42:35.796Z,1.70
2022-10-17T18:47:44.100Z,1.50
2022-10-17T18:52:48.919Z,1.50
2022-10-17T18:57:53.100Z,1.65
2022-10-17T19:02:58.604Z,1.35
2022-10-17T19:08:02.205Z,1.40
2022-10-17T19:13:06.313Z,1.38
2022-10-17T19:18:11.410Z,1.40
2022-10-17T19:23:14.968Z,1.40
2022-10-17T19:28:18.533Z,1.30
2022-10-17T19:33:23.626Z,1.35
2022-10-17T19:38:27.880Z,1.30
2022-10-17T19:43:31.540Z,1.33
2022-10-17T19:48:38.513Z,1.70
2022-10-17T19:53:42.978Z,1.80
2022-10-17T19:58:47.248Z,4.78
2022-10-17T20:03:53.024Z,4.40
2022-10-17T20:08:57.157Z,3.88
2022-10-17T20:14:02.153Z,4.25
2022-10-17T20:19:12.425Z,4.10
2022-10-17T20:24:18.398Z,4.50
2022-10-17T20:29:24.143Z,3.92
2022-10-17T20:34:34.782Z,4.00
2022-10-17T20:39:39.090Z,3.90
2022-10-17T20:44:42.619Z,3.88
2022-10-17T20:49:47.643Z,3.72
2022-10-17T20:54:51.463Z,4.20
2022-10-17T20:59:54.972Z,3.78
2022-10-17T21:05:00.163Z,3.80
2022-10-17T21:10:30.656Z,3.90
2022-10-17T21:15:27.866Z,3.42
2022-10-17T21:20:33.145Z,3.90
2022-10-17T21:25:37.683Z,3.70
2022-10-17T21:30:43.634Z,3.60
2022-10-17T21:35:48.665Z,3.90
2022-10-17T21:40:55.246Z,3.70
2022-10-17T21:46:04.962Z,3.85
2022-10-17T21:51:12.503Z,3.80
2022-10-17T21:56:20.264Z,3.83
2022-10-17T22:01:27.521Z,3.80
2022-10-17T22:06:40.914Z,6.18
2022-10-17T22:11:48.447Z,5.50
2022-10-17T22:16:52.147Z,4.85
2022-10-17T22:21:57.520Z,5.90
2022-10-17T22:27:01.185Z,5.97
2022-10-17T22:32:04.667Z,5.53
2022-10-17T22:37:09.451Z,5.22
2022-10-17T22:42:13.000Z,5.30
2022-10-17T22:47:16.459Z,5.15
2022-10-17T22:52:21.276Z,5.10
2022-10-17T22:57:24.829Z,5.10
2022-10-17T23:02:28.463Z,4.90
2022-10-17T23:07:34.642Z,4.72
2022-10-17T23:12:38.230Z,4.88
2022-10-17T23:17:41.692Z,4.60
2022-10-17T23:22:46.612Z,4.47
2022-10-17T23:27:50.262Z,4.07
2022-10-17T23:32:54.870Z,3.90
2022-10-17T23:37:59.918Z,4.20
2022-10-17T23:43:03.805Z,4.10
2022-10-17T23:48:07.567Z,4.30
2022-10-17T23:53:12.466Z,4.05
2022-10-17T23:58:16.413Z,4.07
